Weather at Rex Williams Field / Moseley Field [CLOSED]

Public forecast

Using degrees Fahrenheit for public forecast. Weather courtesy of forecast.io.

Closest aviation weather report (METAR) to Rex Williams Field / Moseley Field

Closest report is Glendale Municipal Airport, 2.5 nm (4.7 km) NW. Retrieved 2021/06/20 01:49 UTC (2 hours ago):

KGEU 200149Z 20013G17KT 10SM SKC 44/07 A2955 RMK LAST

Closest aviation forecast (TAF) to Rex Williams Field / Moseley Field

Forecast is more than 12 hours old.

Closest forecast is Luke Air Force Base, 6.8 nm (12.6 km) WNW. Retrieved 2021/06/18 20:25 UTC (1 day ago):

TAF KLUF 182000Z 1820/2002 VRB06KT 9999 FEW200 QNH2961INS BECMG 1820/1821 22012G18KT 9999 FEW180 QNH2956INS BECMG 1901/1902 VRB06KT 9999 FEW200 QNH2963INS TEMPO 1922/2002 24010G15KT TX47/1823Z TN30/1913Z LAST NO AMDS AFT 1902 NEXT 2112